createdAt,value
2018-12-01T00:01:34.889Z,65.67
2018-12-01T00:04:04.484Z,65.83
2018-12-01T00:06:34.087Z,71.23
2018-12-01T00:09:03.670Z,68.57
2018-12-01T00:11:33.308Z,70.37
2018-12-01T00:14:03.006Z,73.43
2018-12-01T00:16:32.709Z,73.83
2018-12-01T00:19:02.329Z,72.93
2018-12-01T00:21:31.954Z,75.60
2018-12-01T00:24:01.547Z,75.07
2018-12-01T00:26:31.563Z,76.60
2018-12-01T00:29:01.187Z,64.37
2018-12-01T00:31:30.803Z,72.37
2018-12-01T00:34:00.430Z,77.80
2018-12-01T00:36:30.031Z,74.07
2018-12-01T00:38:59.687Z,73.20
2018-12-01T00:41:29.321Z,68.80
2018-12-01T00:43:59.002Z,65.73
2018-12-01T00:46:28.597Z,67.00
2018-12-01T00:48:58.232Z,64.80
2018-12-01T00:51:28.041Z,61.70
2018-12-01T00:53:57.642Z,66.40
2018-12-01T00:56:27.325Z,60.50
2018-12-01T00:58:56.940Z,54.23
2018-12-01T01:01:26.491Z,60.77
2018-12-01T01:03:56.554Z,51.63
2018-12-01T01:06:26.104Z,52.80
2018-12-01T01:08:55.731Z,55.90
2018-12-01T01:11:25.367Z,66.50
2018-12-01T01:13:54.975Z,58.30
2018-12-01T01:16:24.591Z,61.90
2018-12-01T01:18:54.330Z,57.40
2018-12-01T01:21:23.942Z,53.77
2018-12-01T01:23:53.499Z,53.60
2018-12-01T01:26:23.092Z,60.13
2018-12-01T01:28:52.721Z,53.70
2018-12-01T01:31:22.261Z,53.40
2018-12-01T01:33:52.007Z,55.40
2018-12-01T01:36:21.580Z,59.17
2018-12-01T01:38:51.241Z,57.07
2018-12-01T01:41:20.945Z,52.27
2018-12-01T01:43:50.857Z,54.60
2018-12-01T01:46:20.514Z,56.70
2018-12-01T01:48:50.169Z,56.83
2018-12-01T01:51:19.891Z,55.73
2018-12-01T01:53:49.862Z,55.93
2018-12-01T01:56:19.603Z,55.97
2018-12-01T01:58:49.201Z,56.10
2018-12-01T02:01:18.908Z,55.67
2018-12-01T02:03:48.529Z,57.90
2018-12-01T02:06:18.164Z,58.27
2018-12-01T02:08:47.762Z,56.87
2018-12-01T02:11:17.344Z,57.07
2018-12-01T02:13:46.963Z,57.93
2018-12-01T02:16:16.552Z,62.17
2018-12-01T02:18:46.116Z,57.33
2018-12-01T02:21:15.863Z,60.03
2018-12-01T02:23:45.405Z,62.90
2018-12-01T02:26:14.927Z,64.17
2018-12-01T02:28:44.779Z,67.67
2018-12-01T02:31:14.632Z,58.40
2018-12-01T02:33:44.275Z,64.87
2018-12-01T02:36:13.855Z,56.97
2018-12-01T02:38:43.520Z,64.97
2018-12-01T02:41:13.562Z,64.80
2018-12-01T02:43:43.106Z,59.07
2018-12-01T02:46:26.047Z,58.50
2018-12-01T02:48:55.605Z,59.87
2018-12-01T02:51:25.166Z,58.87
2018-12-01T02:53:54.874Z,65.07
2018-12-01T02:56:24.442Z,60.03
2018-12-01T02:58:53.978Z,66.57
2018-12-01T03:01:23.662Z,61.63
2018-12-01T03:03:53.292Z,57.87
2018-12-01T03:06:22.924Z,64.53
2018-12-01T03:08:52.496Z,61.83
2018-12-01T03:11:22.037Z,59.73
2018-12-01T03:13:51.708Z,59.30
2018-12-01T03:16:21.423Z,60.37
2018-12-01T03:18:51.124Z,60.33
2018-12-01T03:21:20.728Z,63.43
2018-12-01T03:23:50.336Z,62.30
2018-12-01T03:26:19.916Z,61.17
2018-12-01T03:28:49.552Z,64.00
2018-12-01T03:31:19.164Z,66.13
2018-12-01T03:33:48.845Z,61.20
2018-12-01T03:36:18.472Z,61.93
2018-12-01T03:38:48.079Z,66.53
2018-12-01T03:41:17.675Z,69.57
2018-12-01T03:43:47.292Z,62.30
2018-12-01T03:46:16.835Z,58.80
2018-12-01T03:48:46.392Z,66.50
2018-12-01T03:51:16.113Z,59.87
2018-12-01T03:53:45.721Z,73.23
2018-12-01T03:56:15.337Z,70.13
2018-12-01T03:58:45.695Z,71.53
2018-12-01T04:01:16.142Z,63.23
2018-12-01T04:03:45.707Z,67.70
2018-12-01T04:06:15.369Z,67.93
2018-12-01T04:08:44.951Z,68.87
2018-12-01T04:11:14.585Z,61.83
2018-12-01T04:13:44.164Z,68.50
2018-12-01T04:16:13.896Z,67.63
2018-12-01T04:18:43.474Z,61.57
2018-12-01T04:21:13.082Z,67.77
2018-12-01T04:23:42.713Z,63.33
2018-12-01T04:26:12.271Z,67.33
2018-12-01T04:28:42.012Z,74.23
2018-12-01T04:31:11.628Z,67.07
2018-12-01T04:33:41.338Z,67.23
2018-12-01T04:36:11.051Z,66.20
2018-12-01T04:38:40.611Z,71.10
2018-12-01T04:41:10.183Z,65.30
2018-12-01T04:43:39.868Z,64.73
2018-12-01T04:46:09.517Z,64.77
2018-12-01T04:48:39.092Z,63.93
2018-12-01T04:51:08.721Z,71.37
2018-12-01T04:53:38.328Z,60.63
2018-12-01T04:56:07.903Z,58.33
2018-12-01T04:58:37.482Z,69.77
2018-12-01T05:01:07.154Z,65.20
2018-12-01T05:03:36.746Z,62.93
2018-12-01T05:06:06.427Z,73.10
2018-12-01T05:08:36.000Z,64.80
2018-12-01T05:11:05.835Z,62.83
2018-12-01T05:13:35.438Z,65.10
2018-12-01T05:16:05.122Z,62.87
2018-12-01T05:18:34.801Z,62.97
2018-12-01T05:21:04.564Z,61.50
2018-12-01T05:23:34.278Z,68.50
2018-12-01T05:26:03.871Z,67.10
2018-12-01T05:28:33.478Z,68.43
2018-12-01T05:31:03.189Z,61.90
2018-12-01T05:33:32.821Z,62.07
2018-12-01T05:36:02.514Z,61.93
2018-12-01T05:38:32.663Z,59.53
2018-12-01T05:41:02.327Z,60.83
2018-12-01T05:43:31.928Z,62.97
2018-12-01T05:46:01.648Z,63.70
2018-12-01T05:48:31.263Z,67.40
2018-12-01T05:51:00.865Z,63.63
2018-12-01T05:53:30.467Z,60.83
2018-12-01T05:56:00.086Z,56.50
2018-12-01T05:58:29.664Z,61.10
2018-12-01T06:00:59.381Z,65.20
2018-12-01T06:03:28.932Z,60.00
2018-12-01T06:05:58.595Z,58.00
2018-12-01T06:08:28.211Z,60.70
2018-12-01T06:10:57.813Z,58.40
2018-12-01T06:13:27.641Z,59.57
2018-12-01T06:15:57.214Z,58.17
2018-12-01T06:18:26.919Z,52.37
2018-12-01T06:20:56.522Z,56.50
2018-12-01T06:23:26.141Z,59.60
2018-12-01T06:25:55.847Z,61.27
2018-12-01T06:28:25.442Z,64.30
2018-12-01T06:30:55.029Z,60.03
2018-12-01T06:33:24.662Z,59.13
2018-12-01T06:35:54.264Z,57.97
2018-12-01T06:38:23.923Z,61.00
2018-12-01T06:40:53.493Z,64.63
2018-12-01T06:43:23.090Z,62.33
2018-12-01T06:45:52.787Z,67.50
2018-12-01T06:48:22.502Z,61.80
2018-12-01T06:50:52.218Z,59.83
2018-12-01T06:53:22.634Z,66.87
2018-12-01T06:55:52.312Z,68.63
2018-12-01T06:58:21.943Z,61.33
2018-12-01T07:00:51.518Z,64.83
2018-12-01T07:03:21.171Z,61.00
2018-12-01T07:05:50.869Z,64.90
2018-12-01T07:08:20.465Z,63.30
2018-12-01T07:10:50.284Z,70.83
2018-12-01T07:13:19.993Z,70.53
2018-12-01T07:15:49.589Z,67.40
2018-12-01T07:18:32.506Z,73.67
2018-12-01T07:21:02.221Z,76.57
2018-12-01T07:23:31.925Z,71.87
2018-12-01T07:26:01.595Z,72.90
2018-12-01T07:28:32.490Z,68.43
2018-12-01T07:31:02.219Z,69.70
2018-12-01T07:33:32.494Z,67.50
2018-12-01T07:36:02.155Z,71.60
2018-12-01T07:38:32.352Z,66.30
2018-12-01T07:41:01.939Z,70.60
2018-12-01T07:43:31.741Z,68.53
2018-12-01T07:46:01.452Z,76.67
2018-12-01T07:48:31.107Z,69.73
2018-12-01T07:51:03.985Z,83.13
2018-12-01T07:53:40.704Z,85.63
2018-12-01T07:56:20.438Z,78.73
2018-12-01T07:58:51.103Z,81.40
2018-12-01T08:01:31.093Z,84.50
2018-12-01T08:04:07.141Z,83.63
2018-12-01T08:06:38.856Z,84.03
2018-12-01T08:09:13.243Z,84.93
2018-12-01T08:11:43.449Z,75.43
2018-12-01T08:14:14.008Z,86.47
2018-12-01T08:16:44.997Z,78.43
2018-12-01T08:19:26.143Z,95.53
2018-12-01T08:21:59.523Z,79.53
2018-12-01T08:24:39.101Z,86.77
2018-12-01T08:27:12.268Z,89.23
2018-12-01T08:29:43.238Z,86.00
2018-12-01T08:32:21.759Z,91.73
2018-12-01T08:34:51.400Z,90.63
2018-12-01T08:37:22.480Z,87.67
2018-12-01T08:39:55.185Z,79.03
2018-12-01T08:42:29.292Z,77.37
2018-12-01T08:45:02.997Z,73.07
2018-12-01T08:47:36.342Z,84.93
2018-12-01T08:50:20.223Z,81.40
2018-12-01T08:52:54.496Z,82.60
2018-12-01T08:55:32.857Z,83.37
2018-12-01T08:58:02.393Z,82.60
2018-12-01T09:00:38.389Z,83.03
2018-12-01T09:03:14.715Z,80.37
2018-12-01T09:05:44.376Z,82.60
2018-12-01T09:08:13.953Z,85.43
2018-12-01T09:10:43.640Z,80.47
2018-12-01T09:13:13.343Z,82.17
2018-12-01T09:15:44.726Z,85.33
2018-12-01T09:18:14.362Z,84.97
2018-12-01T09:20:45.538Z,79.03
2018-12-01T09:23:16.903Z,73.23
2018-12-01T09:25:48.685Z,84.73
2018-12-01T09:28:19.697Z,81.20
2018-12-01T09:30:49.521Z,89.47
2018-12-01T09:33:19.162Z,85.13
2018-12-01T09:35:48.810Z,81.20
2018-12-01T09:38:18.482Z,81.07
2018-12-01T09:40:48.529Z,95.37
2018-12-01T09:43:18.239Z,90.90
2018-12-01T09:45:47.939Z,82.57
2018-12-01T09:48:17.654Z,90.53
2018-12-01T09:50:47.463Z,90.77
2018-12-01T09:53:17.042Z,87.70
2018-12-01T09:55:47.753Z,98.10
2018-12-01T09:58:17.389Z,93.87
2018-12-01T10:00:47.108Z,90.00
2018-12-01T10:03:16.655Z,90.37
2018-12-01T10:05:46.425Z,95.33
2018-12-01T10:08:16.136Z,93.00
2018-12-01T10:10:46.055Z,84.90
2018-12-01T10:13:15.976Z,92.33
2018-12-01T10:15:45.566Z,87.33
2018-12-01T10:18:15.475Z,89.57
2018-12-01T10:20:45.852Z,95.30
2018-12-01T10:23:15.614Z,86.20
2018-12-01T10:25:45.252Z,97.10
2018-12-01T10:28:15.134Z,102.93
2018-12-01T10:30:44.839Z,96.33
2018-12-01T10:33:14.389Z,105.40
2018-12-01T10:35:44.107Z,97.03
2018-12-01T10:38:16.957Z,110.40
2018-12-01T10:40:47.042Z,108.20
2018-12-01T10:43:16.861Z,109.80
2018-12-01T10:45:46.570Z,103.67
2018-12-01T10:48:16.107Z,112.50
2018-12-01T10:50:45.866Z,118.67
2018-12-01T10:53:15.469Z,121.73
2018-12-01T10:55:45.018Z,114.33
2018-12-01T10:58:22.372Z,122.37
2018-12-01T11:00:56.798Z,117.33
2018-12-01T11:03:32.984Z,124.20
2018-12-01T11:06:06.696Z,133.13
2018-12-01T11:08:36.285Z,128.50
2018-12-01T11:11:05.924Z,146.20
2018-12-01T11:13:37.923Z,143.37
2018-12-01T11:16:08.466Z,138.77
2018-12-01T11:18:38.150Z,152.97
2018-12-01T11:21:08.182Z,154.37
2018-12-01T11:23:37.987Z,156.30
2018-12-01T11:26:07.765Z,152.40
2018-12-01T11:28:37.555Z,164.47
2018-12-01T11:31:07.311Z,168.57
2018-12-01T11:33:37.545Z,176.30
2018-12-01T11:36:07.178Z,175.33
2018-12-01T11:38:36.958Z,163.47
2018-12-01T11:41:07.177Z,169.43
2018-12-01T11:43:37.032Z,163.27
2018-12-01T11:46:06.669Z,182.83
2018-12-01T11:48:36.532Z,190.13
2018-12-01T11:51:06.432Z,195.93
2018-12-01T11:53:42.668Z,178.00
2018-12-01T11:56:12.689Z,186.93
2018-12-01T11:58:42.403Z,192.60
2018-12-01T12:01:12.307Z,218.37
2018-12-01T12:03:41.964Z,221.17
2018-12-01T12:06:11.589Z,222.33
2018-12-01T12:08:41.256Z,226.53
2018-12-01T12:11:11.142Z,248.33
2018-12-01T12:13:40.891Z,263.67
2018-12-01T12:16:10.614Z,266.80
2018-12-01T12:18:40.218Z,287.77
2018-12-01T12:21:09.980Z,278.13
2018-12-01T12:23:39.643Z,293.87
2018-12-01T12:26:09.506Z,298.17
2018-12-01T12:28:39.151Z,287.70
2018-12-01T12:31:08.911Z,267.93
2018-12-01T12:33:38.816Z,275.83
2018-12-01T12:36:08.428Z,287.80
2018-12-01T12:38:38.065Z,270.77
2018-12-01T12:41:07.675Z,285.23
2018-12-01T12:43:37.303Z,294.20
2018-12-01T12:46:07.103Z,300.60
2018-12-01T12:48:36.706Z,318.80
2018-12-01T12:51:06.372Z,304.63
2018-12-01T12:53:36.584Z,321.43
2018-12-01T12:56:06.518Z,308.07
2018-12-01T12:58:36.219Z,325.83
2018-12-01T13:01:06.167Z,321.53
2018-12-01T13:03:35.830Z,346.57
2018-12-01T13:06:05.793Z,363.73
2018-12-01T13:08:35.870Z,356.70
2018-12-01T13:11:05.471Z,350.10
2018-12-01T13:13:35.032Z,378.83
2018-12-01T13:16:04.783Z,356.03
2018-12-01T13:18:34.489Z,376.30
2018-12-01T13:21:04.090Z,408.93
2018-12-01T13:23:33.699Z,413.90
2018-12-01T13:26:03.420Z,447.23
2018-12-01T13:28:33.063Z,443.03
2018-12-01T13:31:02.863Z,438.33
2018-12-01T13:33:32.640Z,450.53
2018-12-01T13:36:02.350Z,449.27
2018-12-01T13:38:32.052Z,483.90
2018-12-01T13:41:01.761Z,462.93
2018-12-01T13:43:31.471Z,462.40
2018-12-01T13:46:01.068Z,437.67
2018-12-01T13:48:30.913Z,470.43
2018-12-01T13:51:02.595Z,491.40
2018-12-01T13:53:32.723Z,516.23
2018-12-01T13:56:09.906Z,497.27
2018-12-01T13:58:39.752Z,510.40
2018-12-01T14:01:12.061Z,507.60
2018-12-01T14:03:42.029Z,534.17
2018-12-01T14:06:11.945Z,566.13
2018-12-01T14:08:43.299Z,508.10
2018-12-01T14:11:13.312Z,549.63
2018-12-01T14:13:43.024Z,571.43
2018-12-01T14:16:13.341Z,531.43
2018-12-01T14:18:43.394Z,482.27
2018-12-01T14:21:13.673Z,440.27
2018-12-01T14:23:43.482Z,449.30
2018-12-01T14:26:13.098Z,448.50
2018-12-01T14:28:43.306Z,426.70
2018-12-01T14:31:13.178Z,485.67
2018-12-01T14:33:42.826Z,455.20
2018-12-01T14:36:12.642Z,485.17
2018-12-01T14:38:42.250Z,477.13
2018-12-01T14:41:11.970Z,488.63
2018-12-01T14:43:41.632Z,490.47
2018-12-01T14:46:13.896Z,497.17
2018-12-01T14:48:43.471Z,498.13
2018-12-01T14:51:13.140Z,525.70
2018-12-01T14:53:43.467Z,468.73
2018-12-01T14:56:13.402Z,521.10
2018-12-01T14:58:43.012Z,538.13
2018-12-01T15:01:12.693Z,552.60
2018-12-01T15:03:42.401Z,540.03
2018-12-01T15:06:12.108Z,572.93
2018-12-01T15:08:41.856Z,568.77
2018-12-01T15:11:11.628Z,585.07
2018-12-01T15:13:41.291Z,581.73
2018-12-01T15:16:11.049Z,604.90
2018-12-01T15:18:40.772Z,620.17
2018-12-01T15:21:10.660Z,563.63
2018-12-01T15:23:40.478Z,645.27
2018-12-01T15:26:10.152Z,624.23
2018-12-01T15:28:39.991Z,631.90
2018-12-01T15:31:09.607Z,677.40
2018-12-01T15:33:39.403Z,656.13
2018-12-01T15:36:09.221Z,650.27
2018-12-01T15:38:38.928Z,673.73
2018-12-01T15:41:08.665Z,716.43
2018-12-01T15:43:38.558Z,650.53
2018-12-01T15:46:08.261Z,638.53
2018-12-01T15:48:38.391Z,654.07
2018-12-01T15:51:08.188Z,692.97
2018-12-01T15:53:37.981Z,663.03
2018-12-01T15:56:07.783Z,651.77
2018-12-01T15:58:40.502Z,652.47
2018-12-01T16:01:10.304Z,634.57
2018-12-01T16:03:39.950Z,653.60
2018-12-01T16:06:09.772Z,649.70
2018-12-01T16:08:39.582Z,582.80
2018-12-01T16:11:09.256Z,573.63
2018-12-01T16:13:39.032Z,577.60
2018-12-01T16:16:10.361Z,598.83
2018-12-01T16:18:41.824Z,646.63
2018-12-01T16:21:11.648Z,598.87
2018-12-01T16:23:41.351Z,592.20
2018-12-01T16:26:11.053Z,579.70
2018-12-01T16:28:40.717Z,603.17
2018-12-01T16:31:10.362Z,622.47
2018-12-01T16:33:40.096Z,603.13
2018-12-01T16:36:09.997Z,572.63
2018-12-01T16:38:39.899Z,594.10
2018-12-01T16:41:17.925Z,634.20
2018-12-01T16:43:47.667Z,605.87
2018-12-01T16:46:17.427Z,554.77
2018-12-01T16:48:47.139Z,555.33
2018-12-01T16:51:16.948Z,567.27
2018-12-01T16:53:46.543Z,547.73
2018-12-01T16:56:16.342Z,533.90
2018-12-01T16:58:46.068Z,527.93
2018-12-01T17:01:15.803Z,512.10
2018-12-01T17:03:45.481Z,499.53
2018-12-01T17:06:18.169Z,532.90
2018-12-01T17:08:49.000Z,506.20
2018-12-01T17:11:18.683Z,482.20
2018-12-01T17:13:48.314Z,493.07
2018-12-01T17:16:17.971Z,486.37
2018-12-01T17:18:47.659Z,465.70
2018-12-01T17:21:17.552Z,457.13
2018-12-01T17:23:47.958Z,452.43
2018-12-01T17:26:17.632Z,429.00
2018-12-01T17:28:47.390Z,406.60
2018-12-01T17:31:17.182Z,391.97
2018-12-01T17:33:46.912Z,385.57
2018-12-01T17:36:16.589Z,360.33
2018-12-01T17:38:46.347Z,345.53
2018-12-01T17:41:26.356Z,317.43
2018-12-01T17:44:04.368Z,313.23
2018-12-01T17:46:34.078Z,322.13
2018-12-01T17:49:03.780Z,324.67
2018-12-01T17:51:36.687Z,329.27
2018-12-01T17:54:13.112Z,332.80
2018-12-01T17:56:42.936Z,314.30
2018-12-01T17:59:13.272Z,313.97
2018-12-01T18:01:43.002Z,288.17
2018-12-01T18:04:12.789Z,275.50
2018-12-01T18:06:42.485Z,288.33
2018-12-01T18:09:12.192Z,284.77
2018-12-01T18:11:41.781Z,303.37
2018-12-01T18:14:12.563Z,312.90
2018-12-01T18:16:42.442Z,328.40
2018-12-01T18:19:12.150Z,329.30
2018-12-01T18:21:41.939Z,359.07
2018-12-01T18:24:11.781Z,375.07
2018-12-01T18:26:41.582Z,366.03
2018-12-01T18:29:12.529Z,379.60
2018-12-01T18:31:42.432Z,393.13
2018-12-01T18:34:14.800Z,448.00
2018-12-01T18:36:44.694Z,435.07
2018-12-01T18:39:17.654Z,428.40
2018-12-01T18:41:47.511Z,479.43
2018-12-01T18:44:17.305Z,451.50
2018-12-01T18:46:47.235Z,444.13
2018-12-01T18:49:17.059Z,483.30
2018-12-01T18:51:46.750Z,530.87
2018-12-01T18:54:16.571Z,528.20
2018-12-01T18:56:46.845Z,551.37
2018-12-01T18:59:17.111Z,510.47
2018-12-01T19:01:53.617Z,529.43
2018-12-01T19:04:23.600Z,559.03
2018-12-01T19:06:56.476Z,580.73
2018-12-01T19:09:27.288Z,582.27
2018-12-01T19:11:57.019Z,575.23
2018-12-01T19:14:26.720Z,559.83
2018-12-01T19:16:56.583Z,533.93
2018-12-01T19:19:26.467Z,497.63
2018-12-01T19:21:56.393Z,510.40
2018-12-01T19:24:27.175Z,512.27
2018-12-01T19:26:56.831Z,498.50
2018-12-01T19:29:26.513Z,455.97
2018-12-01T19:31:56.275Z,419.80
2018-12-01T19:34:30.883Z,409.87
2018-12-01T19:37:00.650Z,379.03
2018-12-01T19:39:30.359Z,367.30
2018-12-01T19:42:00.142Z,349.97
2018-12-01T19:44:34.352Z,351.77
2018-12-01T19:47:07.268Z,330.93
2018-12-01T19:49:43.008Z,311.97
2018-12-01T19:52:12.718Z,289.60
2018-12-01T19:54:42.549Z,313.00
2018-12-01T19:57:13.491Z,286.03
2018-12-01T19:59:46.258Z,296.47
2018-12-01T20:02:15.990Z,287.83
2018-12-01T20:04:45.601Z,310.48
2018-12-01T20:07:18.381Z,324.52
2018-12-01T20:09:48.052Z,274.63
2018-12-01T20:12:17.861Z,259.97
2018-12-01T20:14:47.443Z,254.30
2018-12-01T20:17:17.491Z,261.93
2018-12-01T20:19:47.393Z,248.97
2018-12-01T20:22:20.182Z,264.20
2018-12-01T20:24:49.865Z,284.73
2018-12-01T20:27:20.643Z,267.70
2018-12-01T20:29:56.468Z,285.93
2018-12-01T20:32:29.256Z,300.67
2018-12-01T20:35:00.112Z,297.23
2018-12-01T20:37:33.512Z,301.17
2018-12-01T20:40:04.771Z,304.47
2018-12-01T20:42:34.431Z,292.73
2018-12-01T20:45:05.395Z,286.63
2018-12-01T20:47:35.070Z,295.53
2018-12-01T20:50:08.197Z,283.90
2018-12-01T20:52:38.933Z,283.80
2018-12-01T20:55:17.043Z,284.83
2018-12-01T20:57:57.358Z,265.40
2018-12-01T21:00:31.502Z,257.80
2018-12-01T21:03:01.920Z,257.33
2018-12-01T21:05:31.690Z,276.60
2018-12-01T21:08:02.471Z,278.37
2018-12-01T21:10:36.747Z,262.27
2018-12-01T21:13:07.214Z,275.43
2018-12-01T21:15:36.978Z,277.77
2018-12-01T21:18:09.924Z,260.83
2018-12-01T21:20:39.678Z,267.70
2018-12-01T21:23:09.331Z,263.43
2018-12-01T21:25:39.061Z,280.00
2018-12-01T21:28:08.802Z,281.37
2018-12-01T21:30:39.450Z,286.63
2018-12-01T21:33:19.071Z,287.40
2018-12-01T21:35:49.284Z,280.03
2018-12-01T21:38:19.335Z,293.03
2018-12-01T21:40:49.037Z,282.40
2018-12-01T21:43:21.888Z,292.53
2018-12-01T21:45:53.888Z,294.87
2018-12-01T21:48:23.533Z,295.30
2018-12-01T21:50:57.430Z,312.67
2018-12-01T21:53:27.604Z,317.43
2018-12-01T21:55:57.598Z,307.23
2018-12-01T21:58:27.321Z,307.20
2018-12-01T22:01:01.885Z,317.83
2018-12-01T22:03:32.652Z,355.10
2018-12-01T22:06:07.762Z,317.77
2018-12-01T22:08:38.402Z,305.90
2018-12-01T22:11:09.353Z,323.13
2018-12-01T22:13:40.027Z,306.83
2018-12-01T22:16:10.577Z,345.77
2018-12-01T22:18:40.230Z,303.93
2018-12-01T22:21:10.048Z,328.47
2018-12-01T22:23:39.759Z,318.63
2018-12-01T22:26:12.840Z,312.60
2018-12-01T22:28:42.526Z,301.13
2018-12-01T22:31:12.250Z,296.17
2018-12-01T22:33:41.834Z,306.23
2018-12-01T22:36:11.563Z,319.70
2018-12-01T22:38:41.463Z,316.30
2018-12-01T22:41:11.113Z,320.73
2018-12-01T22:43:41.121Z,327.03
2018-12-01T22:46:10.702Z,330.67
2018-12-01T22:48:40.312Z,338.63
2018-12-01T22:51:10.126Z,363.50
2018-12-01T22:53:39.829Z,363.73
2018-12-01T22:56:10.061Z,381.80
2018-12-01T22:58:39.769Z,343.03
2018-12-01T23:01:09.578Z,365.43
2018-12-01T23:03:42.147Z,349.50
2018-12-01T23:06:11.702Z,351.20
2018-12-01T23:08:42.193Z,312.80
2018-12-01T23:11:11.881Z,352.57
2018-12-01T23:13:49.162Z,357.57
2018-12-01T23:16:19.178Z,380.40
2018-12-01T23:18:51.761Z,353.50
2018-12-01T23:21:21.479Z,335.97
2018-12-01T23:23:51.107Z,310.37
2018-12-01T23:26:20.651Z,281.97
2018-12-01T23:28:50.280Z,278.13
2018-12-01T23:31:19.999Z,263.07
2018-12-01T23:33:49.661Z,263.00
2018-12-01T23:36:19.422Z,263.13
2018-12-01T23:38:49.032Z,271.60
2018-12-01T23:41:18.613Z,280.13
2018-12-01T23:43:48.327Z,303.07
2018-12-01T23:46:17.938Z,321.33
2018-12-01T23:48:47.506Z,279.13
2018-12-01T23:51:17.254Z,290.07
2018-12-01T23:53:46.803Z,352.03
2018-12-01T23:56:17.481Z,332.50
2018-12-01T23:58:47.193Z,300.47
